首页
METAR-TAF:

METAR-TAF

机场 :

盖瑟斯堡, 马里兰州, 美国

纬度: 39-10-06N, 经度: 077-09-58W, 海拔: 164米

当前天气观测

该预报发布于26分钟前的07:08 UTC
风速7节,风向北转西北
温度 19°C
湿度 94%
气压 1010 hPa
能見度: 16.1公里
少量云层高于800英尺
散云层高于2800英尺
阴天层高于3500英尺

METAR: KGAI 230708Z AUTO 33007KT 10SM FEW008 SCT028 OVC035 19/18 A2983 RMK AO2 RAE0659 PNO $

时间: 03:34 (07:34 UTC)


TAF: 丢失

超过4000个机场的气象观测和天气预报(METAR&TAF报告)。

可查询的气象台以黄色和红色小点在地图上表示。

将鼠标移到小点上方,可查看气象台名称。

然后点击查看天气观测和预报。

如需切换地图:点击带黑十字的绿色按钮放大地图;点击带横线的绿色按钮缩小地图;或者点击绿色箭头查看邻近地区的地图。


METAR-TAF: